Terminal Aerodrome Forecast
Issued by NWS

Home | Current Version | Previous Version | Text Only | Print | Product List | Glossary On
Versions: 1 2 3 4 5 6 7 8 9 10 11 12
000
FTUS45 KREV 221100
TAFMMH
TAF
KMMH 221121Z 2212/2312 VRB04KT P6SM SKC
     FM221700 11009KT P6SM SKC
     FM222000 27018G28KT P6SM FEW100
     FM230100 29012G22KT P6SM FEW100
     FM230400 32008KT P6SM SKC
      AMD NOT SKED 2212/2214=

USA.gov is the U.S. government's official web portal to all federal, state and local government web resources and services.